Terminal Aerodrome Forecast
Issued by NWS Sioux Falls, SD

Home | Current Version | Previous Version | Text Only | Print | Product List | Glossary Off
Versions: 1 2 3 4 5 6 7 8 9 10 11 12 13 14 15 16

000
FTUS43 KFSD 161720
TAFSUX
TAF
KSUX 161720Z 1618/1718 32012KT P6SM VCSH OVC010
     FM162000 32012KT P6SM VCSH OVC020
     FM170000 33011KT P6SM BKN035
     FM170100 34010KT P6SM BKN060
     FM170300 35008KT P6SM SCT200=

USA.gov is the U.S. government's official web portal to all federal, state and local government web resources and services.